sensor_id;sensor_type;location;lat;lon;timestamp;temperature;humidity
25923;DHT22;13725;51.170;4.442;2023-06-14T00:01:47;21.10;98.80
25923;DHT22;13725;51.170;4.442;2023-06-14T00:04:13;21.10;99.50
25923;DHT22;13725;51.170;4.442;2023-06-14T00:06:42;21.00;99.90
25923;DHT22;13725;51.170;4.442;2023-06-14T00:09:11;21.00;99.90
25923;DHT22;13725;51.170;4.442;2023-06-14T00:11:39;20.90;99.90
25923;DHT22;13725;51.170;4.442;2023-06-14T00:14:05;21.00;99.90
25923;DHT22;13725;51.170;4.442;2023-06-14T00:16:31;21.00;99.90
25923;DHT22;13725;51.170;4.442;2023-06-14T00:18:59;20.90;99.90
25923;DHT22;13725;51.170;4.442;2023-06-14T00:21:25;20.90;99.90
25923;DHT22;13725;51.170;4.442;2023-06-14T00:23:54;20.90;99.90
25923;DHT22;13725;51.170;4.442;2023-06-14T00:26:19;20.80;99.90
25923;DHT22;13725;51.170;4.442;2023-06-14T00:28:45;20.70;99.90
25923;DHT22;13725;51.170;4.442;2023-06-14T00:31:11;20.80;99.90
25923;DHT22;13725;51.170;4.442;2023-06-14T00:33:37;20.70;99.90
25923;DHT22;13725;51.170;4.442;2023-06-14T00:36:05;20.70;99.90
25923;DHT22;13725;51.170;4.442;2023-06-14T00:38:31;20.60;99.90
25923;DHT22;13725;51.170;4.442;2023-06-14T00:40:57;20.50;99.90
25923;DHT22;13725;51.170;4.442;2023-06-14T00:43:23;20.50;99.90
25923;DHT22;13725;51.170;4.442;2023-06-14T00:45:49;20.50;99.90
25923;DHT22;13725;51.170;4.442;2023-06-14T00:48:17;20.50;99.90
25923;DHT22;13725;51.170;4.442;2023-06-14T00:50:44;20.40;99.90
25923;DHT22;13725;51.170;4.442;2023-06-14T00:53:15;20.40;99.90
25923;DHT22;13725;51.170;4.442;2023-06-14T00:55:41;20.40;99.90
25923;DHT22;13725;51.170;4.442;2023-06-14T00:58:07;20.30;99.90
25923;DHT22;13725;51.170;4.442;2023-06-14T01:00:34;20.30;99.90
25923;DHT22;13725;51.170;4.442;2023-06-14T01:03:00;20.30;99.90
25923;DHT22;13725;51.170;4.442;2023-06-14T01:05:27;20.30;99.90
25923;DHT22;13725;51.170;4.442;2023-06-14T01:08:21;20.30;99.90
25923;DHT22;13725;51.170;4.442;2023-06-14T01:11:22;20.20;99.90
25923;DHT22;13725;51.170;4.442;2023-06-14T01:13:52;20.20;99.90
25923;DHT22;13725;51.170;4.442;2023-06-14T01:16:21;20.20;99.90
25923;DHT22;13725;51.170;4.442;2023-06-14T01:18:47;20.20;99.90
25923;DHT22;13725;51.170;4.442;2023-06-14T01:21:25;20.20;99.90
25923;DHT22;13725;51.170;4.442;2023-06-14T01:23:52;20.20;99.90
25923;DHT22;13725;51.170;4.442;2023-06-14T01:26:22;20.10;99.90
25923;DHT22;13725;51.170;4.442;2023-06-14T01:28:49;20.10;99.90
25923;DHT22;13725;51.170;4.442;2023-06-14T01:31:22;20.00;99.90
25923;DHT22;13725;51.170;4.442;2023-06-14T01:33:50;20.00;99.90
25923;DHT22;13725;51.170;4.442;2023-06-14T01:36:18;20.00;99.90
25923;DHT22;13725;51.170;4.442;2023-06-14T01:38:44;19.90;99.90
25923;DHT22;13725;51.170;4.442;2023-06-14T01:41:11;19.90;99.90
25923;DHT22;13725;51.170;4.442;2023-06-14T01:43:38;19.80;99.90
25923;DHT22;13725;51.170;4.442;2023-06-14T01:46:06;19.80;99.90
25923;DHT22;13725;51.170;4.442;2023-06-14T01:48:32;19.80;99.90
25923;DHT22;13725;51.170;4.442;2023-06-14T01:50:57;19.80;99.90
25923;DHT22;13725;51.170;4.442;2023-06-14T01:53:23;19.80;99.90
25923;DHT22;13725;51.170;4.442;2023-06-14T01:55:49;19.80;99.90
25923;DHT22;13725;51.170;4.442;2023-06-14T01:58:15;19.80;99.90
25923;DHT22;13725;51.170;4.442;2023-06-14T02:00:44;19.70;99.90
25923;DHT22;13725;51.170;4.442;2023-06-14T02:03:11;19.70;99.90
25923;DHT22;13725;51.170;4.442;2023-06-14T02:05:37;19.70;99.90
25923;DHT22;13725;51.170;4.442;2023-06-14T02:08:05;19.70;99.90
25923;DHT22;13725;51.170;4.442;2023-06-14T02:10:31;19.60;99.90
25923;DHT22;13725;51.170;4.442;2023-06-14T02:12:57;19.50;99.90
25923;DHT22;13725;51.170;4.442;2023-06-14T02:15:22;19.50;99.90
25923;DHT22;13725;51.170;4.442;2023-06-14T02:17:49;19.50;99.90
25923;DHT22;13725;51.170;4.442;2023-06-14T02:20:16;19.60;99.90
25923;DHT22;13725;51.170;4.442;2023-06-14T02:22:42;19.60;99.90
25923;DHT22;13725;51.170;4.442;2023-06-14T02:25:08;19.50;99.90
25923;DHT22;13725;51.170;4.442;2023-06-14T02:27:34;19.50;99.90
25923;DHT22;13725;51.170;4.442;2023-06-14T02:30:00;19.50;99.90
25923;DHT22;13725;51.170;4.442;2023-06-14T02:32:26;19.40;99.90
25923;DHT22;13725;51.170;4.442;2023-06-14T02:34:53;19.30;99.90
25923;DHT22;13725;51.170;4.442;2023-06-14T02:37:20;19.30;99.90
25923;DHT22;13725;51.170;4.442;2023-06-14T02:39:46;19.20;99.90
25923;DHT22;13725;51.170;4.442;2023-06-14T02:42:12;19.20;99.90
25923;DHT22;13725;51.170;4.442;2023-06-14T02:44:37;19.20;99.90
25923;DHT22;13725;51.170;4.442;2023-06-14T02:47:04;19.20;99.90
25923;DHT22;13725;51.170;4.442;2023-06-14T02:49:30;19.20;99.90
25923;DHT22;13725;51.170;4.442;2023-06-14T02:51:56;19.20;99.90
25923;DHT22;13725;51.170;4.442;2023-06-14T02:54:22;19.20;99.90
25923;DHT22;13725;51.170;4.442;2023-06-14T02:56:48;19.20;99.90
25923;DHT22;13725;51.170;4.442;2023-06-14T02:59:14;19.20;99.90
25923;DHT22;13725;51.170;4.442;2023-06-14T03:01:40;19.10;99.90
25923;DHT22;13725;51.170;4.442;2023-06-14T03:04:09;19.10;99.90
25923;DHT22;13725;51.170;4.442;2023-06-14T03:06:38;19.00;99.90
25923;DHT22;13725;51.170;4.442;2023-06-14T03:09:05;19.00;99.90
25923;DHT22;13725;51.170;4.442;2023-06-14T03:11:32;18.90;99.90
25923;DHT22;13725;51.170;4.442;2023-06-14T03:13:58;19.00;99.90
25923;DHT22;13725;51.170;4.442;2023-06-14T03:16:26;18.90;99.90
25923;DHT22;13725;51.170;4.442;2023-06-14T03:18:55;18.90;99.90
25923;DHT22;13725;51.170;4.442;2023-06-14T03:21:23;18.80;99.90
25923;DHT22;13725;51.170;4.442;2023-06-14T03:23:51;18.80;99.90
25923;DHT22;13725;51.170;4.442;2023-06-14T03:26:18;18.80;99.90
25923;DHT22;13725;51.170;4.442;2023-06-14T03:28:46;18.80;99.90
25923;DHT22;13725;51.170;4.442;2023-06-14T03:31:13;18.80;99.90
25923;DHT22;13725;51.170;4.442;2023-06-14T03:33:39;18.70;99.90
25923;DHT22;13725;51.170;4.442;2023-06-14T03:36:05;18.60;99.90
25923;DHT22;13725;51.170;4.442;2023-06-14T03:38:33;18.70;99.90
25923;DHT22;13725;51.170;4.442;2023-06-14T03:40:59;18.60;99.90
25923;DHT22;13725;51.170;4.442;2023-06-14T03:43:26;18.60;99.90
25923;DHT22;13725;51.170;4.442;2023-06-14T03:45:52;18.60;99.90
25923;DHT22;13725;51.170;4.442;2023-06-14T03:48:20;18.60;99.90
25923;DHT22;13725;51.170;4.442;2023-06-14T03:50:46;18.60;99.90
25923;DHT22;13725;51.170;4.442;2023-06-14T03:53:12;18.70;99.90
25923;DHT22;13725;51.170;4.442;2023-06-14T03:55:41;18.60;99.90
25923;DHT22;13725;51.170;4.442;2023-06-14T03:58:07;18.50;99.90
25923;DHT22;13725;51.170;4.442;2023-06-14T04:00:35;18.50;99.90
25923;DHT22;13725;51.170;4.442;2023-06-14T04:03:01;18.50;99.90
25923;DHT22;13725;51.170;4.442;2023-06-14T04:05:29;18.60;99.90
25923;DHT22;13725;51.170;4.442;2023-06-14T04:07:55;18.60;99.90
25923;DHT22;13725;51.170;4.442;2023-06-14T04:10:23;18.70;99.90
25923;DHT22;13725;51.170;4.442;2023-06-14T04:12:48;18.70;99.90
25923;DHT22;13725;51.170;4.442;2023-06-14T04:15:16;18.70;99.90
25923;DHT22;13725;51.170;4.442;2023-06-14T04:17:43;18.70;99.90
25923;DHT22;13725;51.170;4.442;2023-06-14T04:20:09;18.70;99.90
25923;DHT22;13725;51.170;4.442;2023-06-14T04:22:36;18.80;99.90
25923;DHT22;13725;51.170;4.442;2023-06-14T04:25:03;18.70;99.90
25923;DHT22;13725;51.170;4.442;2023-06-14T04:27:32;18.80;99.90
25923;DHT22;13725;51.170;4.442;2023-06-14T04:30:00;18.80;99.90
25923;DHT22;13725;51.170;4.442;2023-06-14T04:32:33;18.80;99.90
25923;DHT22;13725;51.170;4.442;2023-06-14T04:35:00;18.80;99.90
25923;DHT22;13725;51.170;4.442;2023-06-14T04:37:30;18.70;99.90
25923;DHT22;13725;51.170;4.442;2023-06-14T04:39:58;18.70;99.90
25923;DHT22;13725;51.170;4.442;2023-06-14T04:42:23;18.70;99.90
25923;DHT22;13725;51.170;4.442;2023-06-14T04:44:51;18.70;99.90
25923;DHT22;13725;51.170;4.442;2023-06-14T04:47:21;18.70;99.90
25923;DHT22;13725;51.170;4.442;2023-06-14T04:49:47;18.70;99.90
25923;DHT22;13725;51.170;4.442;2023-06-14T04:52:13;18.70;99.90
25923;DHT22;13725;51.170;4.442;2023-06-14T04:54:41;18.90;99.90
25923;DHT22;13725;51.170;4.442;2023-06-14T04:57:10;18.90;99.90
25923;DHT22;13725;51.170;4.442;2023-06-14T04:59:40;19.10;99.90
25923;DHT22;13725;51.170;4.442;2023-06-14T05:02:08;19.10;99.90
25923;DHT22;13725;51.170;4.442;2023-06-14T05:04:34;19.20;99.90
25923;DHT22;13725;51.170;4.442;2023-06-14T05:07:00;19.30;99.90
25923;DHT22;13725;51.170;4.442;2023-06-14T05:09:28;19.40;99.90
25923;DHT22;13725;51.170;4.442;2023-06-14T05:11:53;19.40;99.90
25923;DHT22;13725;51.170;4.442;2023-06-14T05:14:20;19.40;99.90
25923;DHT22;13725;51.170;4.442;2023-06-14T05:16:49;19.30;99.90
25923;DHT22;13725;51.170;4.442;2023-06-14T05:19:14;19.30;99.90
25923;DHT22;13725;51.170;4.442;2023-06-14T05:21:40;19.50;99.90
25923;DHT22;13725;51.170;4.442;2023-06-14T05:24:06;19.50;99.90
25923;DHT22;13725;51.170;4.442;2023-06-14T05:26:32;19.40;99.90
25923;DHT22;13725;51.170;4.442;2023-06-14T05:28:59;19.50;99.90
25923;DHT22;13725;51.170;4.442;2023-06-14T05:31:27;19.60;99.90
25923;DHT22;13725;51.170;4.442;2023-06-14T05:33:53;19.80;99.90
25923;DHT22;13725;51.170;4.442;2023-06-14T05:36:20;19.80;99.90
25923;DHT22;13725;51.170;4.442;2023-06-14T05:38:46;19.90;99.90
25923;DHT22;13725;51.170;4.442;2023-06-14T05:41:13;20.00;99.90
25923;DHT22;13725;51.170;4.442;2023-06-14T05:43:39;20.10;99.90
25923;DHT22;13725;51.170;4.442;2023-06-14T05:46:06;20.20;99.90
25923;DHT22;13725;51.170;4.442;2023-06-14T05:48:31;20.20;99.90
25923;DHT22;13725;51.170;4.442;2023-06-14T05:50:58;20.20;99.90
25923;DHT22;13725;51.170;4.442;2023-06-14T05:53:24;20.20;99.90
25923;DHT22;13725;51.170;4.442;2023-06-14T05:55:50;20.30;99.90
25923;DHT22;13725;51.170;4.442;2023-06-14T05:58:19;20.40;99.90
25923;DHT22;13725;51.170;4.442;2023-06-14T06:00:45;20.40;99.90
25923;DHT22;13725;51.170;4.442;2023-06-14T06:03:11;20.50;99.90
25923;DHT22;13725;51.170;4.442;2023-06-14T06:05:39;20.60;99.90
25923;DHT22;13725;51.170;4.442;2023-06-14T06:08:05;20.80;99.90
25923;DHT22;13725;51.170;4.442;2023-06-14T06:10:31;21.10;99.90
25923;DHT22;13725;51.170;4.442;2023-06-14T06:12:58;21.40;99.90
25923;DHT22;13725;51.170;4.442;2023-06-14T06:15:24;21.50;98.80
25923;DHT22;13725;51.170;4.442;2023-06-14T06:17:50;21.90;97.40
25923;DHT22;13725;51.170;4.442;2023-06-14T06:20:16;23.20;93.90
25923;DHT22;13725;51.170;4.442;2023-06-14T06:22:42;24.70;91.30
25923;DHT22;13725;51.170;4.442;2023-06-14T06:25:09;26.30;85.50
25923;DHT22;13725;51.170;4.442;2023-06-14T06:27:34;27.80;80.30
25923;DHT22;13725;51.170;4.442;2023-06-14T06:30:03;28.70;75.00
25923;DHT22;13725;51.170;4.442;2023-06-14T06:32:29;29.30;72.80
25923;DHT22;13725;51.170;4.442;2023-06-14T06:34:55;30.20;70.60
25923;DHT22;13725;51.170;4.442;2023-06-14T06:37:20;30.00;68.50
25923;DHT22;13725;51.170;4.442;2023-06-14T06:39:46;30.80;68.20
25923;DHT22;13725;51.170;4.442;2023-06-14T06:42:13;31.20;66.90
25923;DHT22;13725;51.170;4.442;2023-06-14T06:44:42;31.50;65.70
25923;DHT22;13725;51.170;4.442;2023-06-14T06:47:08;31.60;64.60
25923;DHT22;13725;51.170;4.442;2023-06-14T06:49:36;32.10;64.70
25923;DHT22;13725;51.170;4.442;2023-06-14T06:52:04;32.60;62.70
25923;DHT22;13725;51.170;4.442;2023-06-14T06:54:30;32.70;63.40
25923;DHT22;13725;51.170;4.442;2023-06-14T06:56:56;33.00;62.40
25923;DHT22;13725;51.170;4.442;2023-06-14T06:59:22;33.50;61.40
25923;DHT22;13725;51.170;4.442;2023-06-14T07:01:48;33.40;60.90
25923;DHT22;13725;51.170;4.442;2023-06-14T07:04:14;34.10;59.80
25923;DHT22;13725;51.170;4.442;2023-06-14T07:06:40;34.00;58.50
25923;DHT22;13725;51.170;4.442;2023-06-14T07:09:05;34.00;58.70
25923;DHT22;13725;51.170;4.442;2023-06-14T07:11:34;34.00;59.50
25923;DHT22;13725;51.170;4.442;2023-06-14T07:13:59;34.20;58.90
25923;DHT22;13725;51.170;4.442;2023-06-14T07:16:25;34.60;58.30
25923;DHT22;13725;51.170;4.442;2023-06-14T07:18:51;35.40;57.60
25923;DHT22;13725;51.170;4.442;2023-06-14T07:21:18;35.60;57.00
25923;DHT22;13725;51.170;4.442;2023-06-14T07:23:43;35.90;57.00
25923;DHT22;13725;51.170;4.442;2023-06-14T07:26:09;36.00;56.50
25923;DHT22;13725;51.170;4.442;2023-06-14T07:28:35;36.30;56.10
25923;DHT22;13725;51.170;4.442;2023-06-14T07:31:02;36.20;55.40
25923;DHT22;13725;51.170;4.442;2023-06-14T07:33:28;36.50;55.40
25923;DHT22;13725;51.170;4.442;2023-06-14T07:35:54;37.10;55.20
25923;DHT22;13725;51.170;4.442;2023-06-14T07:38:20;36.90;54.20
25923;DHT22;13725;51.170;4.442;2023-06-14T07:40:46;37.20;54.30
25923;DHT22;13725;51.170;4.442;2023-06-14T07:43:11;37.80;55.10
25923;DHT22;13725;51.170;4.442;2023-06-14T07:45:37;38.20;53.70
25923;DHT22;13725;51.170;4.442;2023-06-14T07:48:04;38.40;53.70
25923;DHT22;13725;51.170;4.442;2023-06-14T07:50:30;38.50;54.00
25923;DHT22;13725;51.170;4.442;2023-06-14T07:52:56;38.60;54.10
25923;DHT22;13725;51.170;4.442;2023-06-14T07:55:22;38.60;54.00
25923;DHT22;13725;51.170;4.442;2023-06-14T07:57:47;38.60;53.80
25923;DHT22;13725;51.170;4.442;2023-06-14T08:00:13;38.40;53.60
25923;DHT22;13725;51.170;4.442;2023-06-14T08:02:44;38.40;54.20
25923;DHT22;13725;51.170;4.442;2023-06-14T08:05:10;38.90;53.40
25923;DHT22;13725;51.170;4.442;2023-06-14T08:07:37;39.10;53.90
25923;DHT22;13725;51.170;4.442;2023-06-14T08:10:05;39.50;53.70
25923;DHT22;13725;51.170;4.442;2023-06-14T08:12:31;39.80;53.10
25923;DHT22;13725;51.170;4.442;2023-06-14T08:14:56;40.00;52.60
25923;DHT22;13725;51.170;4.442;2023-06-14T08:17:22;39.90;51.60
25923;DHT22;13725;51.170;4.442;2023-06-14T08:19:48;39.30;52.10
25923;DHT22;13725;51.170;4.442;2023-06-14T08:22:13;39.50;51.60
25923;DHT22;13725;51.170;4.442;2023-06-14T08:24:39;39.40;51.50
25923;DHT22;13725;51.170;4.442;2023-06-14T08:27:06;38.70;51.70
25923;DHT22;13725;51.170;4.442;2023-06-14T08:29:32;38.80;52.30
25923;DHT22;13725;51.170;4.442;2023-06-14T08:31:58;39.40;52.80
25923;DHT22;13725;51.170;4.442;2023-06-14T08:34:24;39.30;51.50
25923;DHT22;13725;51.170;4.442;2023-06-14T08:36:52;38.10;52.20
25923;DHT22;13725;51.170;4.442;2023-06-14T08:39:18;38.30;52.20
25923;DHT22;13725;51.170;4.442;2023-06-14T08:41:46;38.00;51.40
25923;DHT22;13725;51.170;4.442;2023-06-14T08:44:15;37.70;52.20
25923;DHT22;13725;51.170;4.442;2023-06-14T08:46:41;38.00;52.20
25923;DHT22;13725;51.170;4.442;2023-06-14T08:49:08;38.50;51.60
25923;DHT22;13725;51.170;4.442;2023-06-14T08:51:37;38.80;51.00
25923;DHT22;13725;51.170;4.442;2023-06-14T08:54:03;38.80;51.80
25923;DHT22;13725;51.170;4.442;2023-06-14T08:56:31;39.10;50.40
25923;DHT22;13725;51.170;4.442;2023-06-14T08:58:58;39.00;51.10
25923;DHT22;13725;51.170;4.442;2023-06-14T09:01:30;38.80;50.60
25923;DHT22;13725;51.170;4.442;2023-06-14T09:03:56;38.40;51.10
25923;DHT22;13725;51.170;4.442;2023-06-14T09:06:23;38.00;51.40
25923;DHT22;13725;51.170;4.442;2023-06-14T09:08:50;38.60;50.40
25923;DHT22;13725;51.170;4.442;2023-06-14T09:11:19;38.30;51.00
25923;DHT22;13725;51.170;4.442;2023-06-14T09:13:49;38.20;51.80
25923;DHT22;13725;51.170;4.442;2023-06-14T09:16:15;38.40;51.50
25923;DHT22;13725;51.170;4.442;2023-06-14T09:18:45;39.20;51.90
25923;DHT22;13725;51.170;4.442;2023-06-14T09:21:17;39.60;50.20
25923;DHT22;13725;51.170;4.442;2023-06-14T09:23:44;39.50;50.30
25923;DHT22;13725;51.170;4.442;2023-06-14T09:26:15;39.50;50.40
25923;DHT22;13725;51.170;4.442;2023-06-14T09:28:48;39.60;50.60
25923;DHT22;13725;51.170;4.442;2023-06-14T09:31:18;40.00;49.90
25923;DHT22;13725;51.170;4.442;2023-06-14T09:33:45;39.20;50.30
25923;DHT22;13725;51.170;4.442;2023-06-14T09:36:24;38.80;49.30
25923;DHT22;13725;51.170;4.442;2023-06-14T09:39:01;39.10;50.10
25923;DHT22;13725;51.170;4.442;2023-06-14T09:41:36;39.40;49.20
25923;DHT22;13725;51.170;4.442;2023-06-14T09:44:06;39.30;49.90
25923;DHT22;13725;51.170;4.442;2023-06-14T09:46:33;38.90;48.30
25923;DHT22;13725;51.170;4.442;2023-06-14T09:48:59;39.30;48.50
25923;DHT22;13725;51.170;4.442;2023-06-14T09:51:27;39.10;46.80
25923;DHT22;13725;51.170;4.442;2023-06-14T09:53:58;39.50;48.70
25923;DHT22;13725;51.170;4.442;2023-06-14T09:56:28;39.60;48.50
25923;DHT22;13725;51.170;4.442;2023-06-14T09:58:56;38.80;48.30
25923;DHT22;13725;51.170;4.442;2023-06-14T10:01:26;39.20;48.20
25923;DHT22;13725;51.170;4.442;2023-06-14T10:04:02;40.40;49.10
25923;DHT22;13725;51.170;4.442;2023-06-14T10:06:29;40.80;46.90
25923;DHT22;13725;51.170;4.442;2023-06-14T10:08:59;39.80;46.40
25923;DHT22;13725;51.170;4.442;2023-06-14T10:11:26;39.80;46.90
25923;DHT22;13725;51.170;4.442;2023-06-14T10:13:54;40.10;46.70
25923;DHT22;13725;51.170;4.442;2023-06-14T10:19:22;39.30;48.00
25923;DHT22;13725;51.170;4.442;2023-06-14T10:24:32;40.10;46.30
25923;DHT22;13725;51.170;4.442;2023-06-14T10:26:59;40.30;45.40
25923;DHT22;13725;51.170;4.442;2023-06-14T10:29:27;41.40;46.40
25923;DHT22;13725;51.170;4.442;2023-06-14T10:31:58;40.80;45.20
25923;DHT22;13725;51.170;4.442;2023-06-14T10:34:26;41.10;45.50
25923;DHT22;13725;51.170;4.442;2023-06-14T10:37:04;40.60;44.90
25923;DHT22;13725;51.170;4.442;2023-06-14T10:39:30;40.40;45.90
25923;DHT22;13725;51.170;4.442;2023-06-14T10:41:57;39.70;46.20
25923;DHT22;13725;51.170;4.442;2023-06-14T10:46:56;39.70;46.50
25923;DHT22;13725;51.170;4.442;2023-06-14T10:49:40;40.50;46.00
25923;DHT22;13725;51.170;4.442;2023-06-14T10:52:15;40.40;45.60
25923;DHT22;13725;51.170;4.442;2023-06-14T10:55:03;40.10;45.00
25923;DHT22;13725;51.170;4.442;2023-06-14T10:57:41;39.30;46.00
25923;DHT22;13725;51.170;4.442;2023-06-14T11:00:09;39.50;45.80
25923;DHT22;13725;51.170;4.442;2023-06-14T11:05:27;40.10;46.40
25923;DHT22;13725;51.170;4.442;2023-06-14T11:08:15;39.60;45.60
25923;DHT22;13725;51.170;4.442;2023-06-14T11:10:44;39.80;46.70
25923;DHT22;13725;51.170;4.442;2023-06-14T11:13:13;40.40;45.80
25923;DHT22;13725;51.170;4.442;2023-06-14T11:15:44;40.70;45.40
25923;DHT22;13725;51.170;4.442;2023-06-14T11:18:12;41.20;45.20
25923;DHT22;13725;51.170;4.442;2023-06-14T11:20:39;41.40;45.10
25923;DHT22;13725;51.170;4.442;2023-06-14T11:23:05;41.90;44.30
25923;DHT22;13725;51.170;4.442;2023-06-14T11:25:32;42.10;44.80
25923;DHT22;13725;51.170;4.442;2023-06-14T11:27:58;42.50;45.40
25923;DHT22;13725;51.170;4.442;2023-06-14T11:30:25;42.20;44.30
25923;DHT22;13725;51.170;4.442;2023-06-14T11:32:54;41.90;45.10
25923;DHT22;13725;51.170;4.442;2023-06-14T11:35:24;41.90;43.60
25923;DHT22;13725;51.170;4.442;2023-06-14T11:37:54;40.10;44.10
25923;DHT22;13725;51.170;4.442;2023-06-14T11:40:26;40.10;45.30
25923;DHT22;13725;51.170;4.442;2023-06-14T11:43:00;40.80;45.10
25923;DHT22;13725;51.170;4.442;2023-06-14T11:45:26;41.10;45.20
25923;DHT22;13725;51.170;4.442;2023-06-14T11:47:54;41.30;44.70
25923;DHT22;13725;51.170;4.442;2023-06-14T11:50:21;40.70;44.60
25923;DHT22;13725;51.170;4.442;2023-06-14T11:52:59;41.20;45.10
25923;DHT22;13725;51.170;4.442;2023-06-14T11:55:38;41.50;44.60
25923;DHT22;13725;51.170;4.442;2023-06-14T11:58:06;41.40;44.70
25923;DHT22;13725;51.170;4.442;2023-06-14T12:00:32;42.40;44.70
25923;DHT22;13725;51.170;4.442;2023-06-14T12:02:58;42.40;43.00
25923;DHT22;13725;51.170;4.442;2023-06-14T12:05:25;41.80;44.50
25923;DHT22;13725;51.170;4.442;2023-06-14T12:07:58;41.00;44.40
25923;DHT22;13725;51.170;4.442;2023-06-14T12:10:26;40.60;44.60
25923;DHT22;13725;51.170;4.442;2023-06-14T12:12:57;41.30;45.00
25923;DHT22;13725;51.170;4.442;2023-06-14T12:15:23;42.10;44.50
25923;DHT22;13725;51.170;4.442;2023-06-14T12:17:50;41.60;43.40
25923;DHT22;13725;51.170;4.442;2023-06-14T12:20:18;40.10;44.60
25923;DHT22;13725;51.170;4.442;2023-06-14T12:22:58;39.90;45.20
25923;DHT22;13725;51.170;4.442;2023-06-14T12:28:04;40.30;45.10
25923;DHT22;13725;51.170;4.442;2023-06-14T12:30:31;40.40;44.40
25923;DHT22;13725;51.170;4.442;2023-06-14T12:32:57;40.40;44.20
25923;DHT22;13725;51.170;4.442;2023-06-14T12:35:22;40.50;45.00
25923;DHT22;13725;51.170;4.442;2023-06-14T12:37:48;40.30;44.00
25923;DHT22;13725;51.170;4.442;2023-06-14T12:40:14;40.40;45.00
25923;DHT22;13725;51.170;4.442;2023-06-14T12:42:40;40.90;43.90
25923;DHT22;13725;51.170;4.442;2023-06-14T12:45:10;40.00;44.40
25923;DHT22;13725;51.170;4.442;2023-06-14T12:47:36;40.10;43.40
25923;DHT22;13725;51.170;4.442;2023-06-14T12:50:01;40.80;43.80
25923;DHT22;13725;51.170;4.442;2023-06-14T12:52:28;41.30;44.30
25923;DHT22;13725;51.170;4.442;2023-06-14T12:54:54;41.60;43.50
25923;DHT22;13725;51.170;4.442;2023-06-14T12:57:20;41.50;42.20
25923;DHT22;13725;51.170;4.442;2023-06-14T12:59:46;41.70;43.90
25923;DHT22;13725;51.170;4.442;2023-06-14T13:02:18;42.20;44.00
25923;DHT22;13725;51.170;4.442;2023-06-14T13:04:47;41.80;41.80
25923;DHT22;13725;51.170;4.442;2023-06-14T13:07:12;41.30;43.70
25923;DHT22;13725;51.170;4.442;2023-06-14T13:09:41;41.40;42.80
25923;DHT22;13725;51.170;4.442;2023-06-14T13:12:09;40.80;41.70
25923;DHT22;13725;51.170;4.442;2023-06-14T13:14:37;39.60;43.60
25923;DHT22;13725;51.170;4.442;2023-06-14T13:17:02;39.90;42.90
25923;DHT22;13725;51.170;4.442;2023-06-14T13:19:28;38.60;43.40
25923;DHT22;13725;51.170;4.442;2023-06-14T13:21:54;38.60;43.20
25923;DHT22;13725;51.170;4.442;2023-06-14T13:24:20;38.30;42.70
25923;DHT22;13725;51.170;4.442;2023-06-14T13:26:45;38.00;43.40
25923;DHT22;13725;51.170;4.442;2023-06-14T13:29:11;38.50;45.60
25923;DHT22;13725;51.170;4.442;2023-06-14T13:31:37;38.80;45.40
25923;DHT22;13725;51.170;4.442;2023-06-14T13:34:03;39.00;45.10
25923;DHT22;13725;51.170;4.442;2023-06-14T13:36:30;38.90;44.10
25923;DHT22;13725;51.170;4.442;2023-06-14T13:38:55;38.30;44.60
25923;DHT22;13725;51.170;4.442;2023-06-14T13:41:21;36.60;45.10
25923;DHT22;13725;51.170;4.442;2023-06-14T13:43:47;35.50;45.80
25923;DHT22;13725;51.170;4.442;2023-06-14T13:46:13;34.60;47.00
25923;DHT22;13725;51.170;4.442;2023-06-14T13:48:38;33.20;48.00
25923;DHT22;13725;51.170;4.442;2023-06-14T13:51:04;32.30;48.70
25923;DHT22;13725;51.170;4.442;2023-06-14T13:53:30;31.60;49.70
25923;DHT22;13725;51.170;4.442;2023-06-14T13:55:56;31.40;50.70
25923;DHT22;13725;51.170;4.442;2023-06-14T13:58:22;31.00;51.70
25923;DHT22;13725;51.170;4.442;2023-06-14T14:00:49;30.90;50.90
25923;DHT22;13725;51.170;4.442;2023-06-14T14:03:15;30.70;51.50
25923;DHT22;13725;51.170;4.442;2023-06-14T14:05:41;30.50;51.10
25923;DHT22;13725;51.170;4.442;2023-06-14T14:08:07;30.20;52.10
25923;DHT22;13725;51.170;4.442;2023-06-14T14:10:33;30.10;51.20
25923;DHT22;13725;51.170;4.442;2023-06-14T14:12:59;29.80;51.80
25923;DHT22;13725;51.170;4.442;2023-06-14T14:15:25;29.50;52.60
25923;DHT22;13725;51.170;4.442;2023-06-14T14:17:51;29.50;55.20
25923;DHT22;13725;51.170;4.442;2023-06-14T14:20:19;29.60;53.10
25923;DHT22;13725;51.170;4.442;2023-06-14T14:22:45;29.70;53.30
25923;DHT22;13725;51.170;4.442;2023-06-14T14:25:11;29.60;53.20
25923;DHT22;13725;51.170;4.442;2023-06-14T14:27:37;29.50;53.00
25923;DHT22;13725;51.170;4.442;2023-06-14T14:30:04;29.50;53.50
25923;DHT22;13725;51.170;4.442;2023-06-14T14:32:30;29.50;54.60
25923;DHT22;13725;51.170;4.442;2023-06-14T14:34:55;29.50;52.50
25923;DHT22;13725;51.170;4.442;2023-06-14T14:37:21;29.50;54.00
25923;DHT22;13725;51.170;4.442;2023-06-14T14:39:47;29.60;54.30
25923;DHT22;13725;51.170;4.442;2023-06-14T14:42:12;29.60;53.20
25923;DHT22;13725;51.170;4.442;2023-06-14T14:44:40;29.40;53.60
25923;DHT22;13725;51.170;4.442;2023-06-14T14:47:06;29.40;53.60
25923;DHT22;13725;51.170;4.442;2023-06-14T14:49:32;29.20;53.90
25923;DHT22;13725;51.170;4.442;2023-06-14T14:51:58;29.20;54.50
25923;DHT22;13725;51.170;4.442;2023-06-14T14:54:24;29.20;53.70
25923;DHT22;13725;51.170;4.442;2023-06-14T14:56:51;29.00;53.30
25923;DHT22;13725;51.170;4.442;2023-06-14T14:59:17;28.80;53.40
25923;DHT22;13725;51.170;4.442;2023-06-14T15:01:44;28.70;53.50
25923;DHT22;13725;51.170;4.442;2023-06-14T15:04:09;28.60;53.70
25923;DHT22;13725;51.170;4.442;2023-06-14T15:06:35;28.60;55.50
25923;DHT22;13725;51.170;4.442;2023-06-14T15:09:01;28.70;56.50
25923;DHT22;13725;51.170;4.442;2023-06-14T15:11:27;28.80;55.00
25923;DHT22;13725;51.170;4.442;2023-06-14T15:13:53;28.80;56.10
25923;DHT22;13725;51.170;4.442;2023-06-14T15:16:19;28.80;54.40
25923;DHT22;13725;51.170;4.442;2023-06-14T15:18:45;28.80;54.20
25923;DHT22;13725;51.170;4.442;2023-06-14T15:21:12;28.80;54.60
25923;DHT22;13725;51.170;4.442;2023-06-14T15:23:38;28.70;53.90
25923;DHT22;13725;51.170;4.442;2023-06-14T15:26:04;28.60;55.20
25923;DHT22;13725;51.170;4.442;2023-06-14T15:28:30;28.60;54.40
25923;DHT22;13725;51.170;4.442;2023-06-14T15:30:59;28.50;55.10
25923;DHT22;13725;51.170;4.442;2023-06-14T15:33:24;28.50;54.60
25923;DHT22;13725;51.170;4.442;2023-06-14T15:35:51;28.40;54.70
25923;DHT22;13725;51.170;4.442;2023-06-14T15:38:16;28.30;54.80
25923;DHT22;13725;51.170;4.442;2023-06-14T15:40:42;28.20;55.40
25923;DHT22;13725;51.170;4.442;2023-06-14T15:43:08;28.30;55.80
25923;DHT22;13725;51.170;4.442;2023-06-14T15:45:34;28.30;55.00